createdAt,value
2019-03-19T00:00:21.070Z,12.83
2019-03-19T00:02:50.467Z,11.47
2019-03-19T00:05:19.875Z,11.37
2019-03-19T00:07:49.270Z,11.73
2019-03-19T00:10:18.959Z,13.90
2019-03-19T00:12:48.374Z,13.17
2019-03-19T00:15:17.933Z,12.80
2019-03-19T00:17:47.322Z,12.47
2019-03-19T00:20:17.111Z,13.47
2019-03-19T00:22:46.533Z,12.63
2019-03-19T00:25:15.955Z,10.20
2019-03-19T00:27:45.356Z,13.40
2019-03-19T00:30:18.340Z,11.23
2019-03-19T00:32:47.763Z,13.57
2019-03-19T00:35:17.202Z,13.30
2019-03-19T00:37:46.610Z,10.00
2019-03-19T00:40:16.396Z,13.63
2019-03-19T00:42:45.809Z,10.53
2019-03-19T00:45:15.462Z,12.10
2019-03-19T00:47:44.876Z,11.97
2019-03-19T00:50:16.194Z,12.13
2019-03-19T00:52:45.665Z,11.03
2019-03-19T00:55:15.277Z,11.13
2019-03-19T00:57:44.676Z,12.00
2019-03-19T01:00:16.421Z,11.73
2019-03-19T01:02:45.817Z,12.03
2019-03-19T01:05:15.675Z,12.97
2019-03-19T01:07:45.083Z,10.97
2019-03-19T01:10:17.963Z,13.07
2019-03-19T01:12:47.368Z,11.37
2019-03-19T01:15:16.908Z,10.83
2019-03-19T01:17:46.311Z,9.97
2019-03-19T01:20:16.657Z,12.20
2019-03-19T01:22:46.109Z,14.50
2019-03-19T01:25:15.487Z,11.30
2019-03-19T01:27:44.905Z,11.27
2019-03-19T01:30:15.544Z,10.97
2019-03-19T01:32:44.957Z,13.87
2019-03-19T01:35:14.361Z,12.83
2019-03-19T01:37:43.806Z,11.47
2019-03-19T01:40:13.541Z,11.63
2019-03-19T01:42:42.970Z,12.47
2019-03-19T01:45:13.398Z,12.47
2019-03-19T01:47:42.886Z,16.27
2019-03-19T01:50:13.616Z,12.27
2019-03-19T01:52:43.044Z,14.37
2019-03-19T01:55:13.803Z,14.50
2019-03-19T01:57:43.464Z,13.37
2019-03-19T02:00:15.504Z,11.97
2019-03-19T02:02:44.919Z,13.37
2019-03-19T02:05:14.448Z,11.93
2019-03-19T02:07:43.866Z,12.17
2019-03-19T02:10:14.321Z,12.50
2019-03-19T02:12:43.737Z,12.40
2019-03-19T02:15:17.757Z,12.20
2019-03-19T02:17:47.173Z,13.07
2019-03-19T02:20:17.501Z,11.83
2019-03-19T02:22:47.095Z,12.83
2019-03-19T02:25:16.489Z,11.57
2019-03-19T02:27:45.888Z,11.33
2019-03-19T02:30:18.512Z,13.80
2019-03-19T02:32:47.929Z,11.77
2019-03-19T02:35:17.403Z,11.13
2019-03-19T02:37:46.814Z,10.97
2019-03-19T02:40:17.182Z,10.80
2019-03-19T02:42:46.565Z,11.23
2019-03-19T02:45:16.229Z,10.93
2019-03-19T02:47:45.631Z,11.93
2019-03-19T02:50:16.367Z,12.63
2019-03-19T02:52:45.942Z,11.27
2019-03-19T02:55:15.335Z,13.17
2019-03-19T02:57:44.743Z,12.53
2019-03-19T03:00:15.594Z,14.93
2019-03-19T03:02:45.029Z,12.47
2019-03-19T03:05:16.954Z,11.00
2019-03-19T03:07:46.373Z,12.10
2019-03-19T03:10:16.013Z,16.37
2019-03-19T03:12:45.429Z,12.27
2019-03-19T03:15:15.558Z,13.43
2019-03-19T03:17:45.124Z,13.30
2019-03-19T03:20:15.775Z,14.53
2019-03-19T03:22:45.251Z,15.67
2019-03-19T03:25:15.683Z,13.40
2019-03-19T03:27:45.127Z,15.37
2019-03-19T03:30:19.839Z,12.33
2019-03-19T03:32:49.270Z,9.13
2019-03-19T03:35:18.663Z,9.33
2019-03-19T03:37:48.081Z,11.73
2019-03-19T03:40:18.732Z,12.47
2019-03-19T03:42:48.124Z,13.50
2019-03-19T03:45:18.762Z,15.80
2019-03-19T03:47:48.241Z,15.27
2019-03-19T03:50:20.698Z,14.57
2019-03-19T03:52:50.111Z,17.63
2019-03-19T03:55:20.259Z,15.20
2019-03-19T03:57:51.115Z,17.83
2019-03-19T04:00:24.170Z,20.53
2019-03-19T04:02:53.660Z,17.20
2019-03-19T04:05:23.236Z,16.47
2019-03-19T04:07:52.632Z,18.63
2019-03-19T04:10:22.051Z,19.27
2019-03-19T04:12:51.443Z,19.20
2019-03-19T04:15:20.862Z,22.13
2019-03-19T04:17:50.258Z,21.17
2019-03-19T04:20:19.893Z,24.50
2019-03-19T04:22:49.317Z,18.70
2019-03-19T04:25:18.828Z,13.97
2019-03-19T04:27:48.195Z,15.87
2019-03-19T04:30:21.589Z,16.47
2019-03-19T04:32:50.985Z,16.40
2019-03-19T04:35:20.409Z,15.47
2019-03-19T04:37:49.826Z,13.73
2019-03-19T04:40:19.229Z,14.57
2019-03-19T04:42:48.665Z,23.20
2019-03-19T04:45:18.073Z,17.17
2019-03-19T04:47:47.484Z,17.37
2019-03-19T04:50:17.533Z,16.07
2019-03-19T04:52:46.930Z,17.27
2019-03-19T04:55:17.101Z,12.27
2019-03-19T04:57:46.473Z,15.77
2019-03-19T05:00:19.364Z,14.83
2019-03-19T05:02:48.762Z,12.67
2019-03-19T05:05:18.173Z,14.50
2019-03-19T05:07:47.571Z,14.60
2019-03-19T05:10:17.938Z,15.07
2019-03-19T05:12:47.473Z,13.97
2019-03-19T05:15:17.010Z,14.00
2019-03-19T05:17:46.412Z,13.47
2019-03-19T05:20:16.905Z,14.20
2019-03-19T05:22:46.305Z,14.77
2019-03-19T05:25:15.713Z,14.83
2019-03-19T05:27:45.147Z,13.97
2019-03-19T05:30:44.431Z,13.10
2019-03-19T05:33:13.830Z,15.43
2019-03-19T05:35:43.252Z,15.63
2019-03-19T05:38:12.664Z,18.37
2019-03-19T05:40:42.066Z,15.90
2019-03-19T05:43:11.476Z,13.40
2019-03-19T05:45:40.882Z,13.40
2019-03-19T05:48:10.304Z,14.30
2019-03-19T05:50:39.729Z,18.67
2019-03-19T05:53:09.173Z,15.60
2019-03-19T05:55:38.561Z,24.93
2019-03-19T05:58:07.951Z,19.63
2019-03-19T06:00:38.849Z,18.47
2019-03-19T06:03:08.240Z,17.57
2019-03-19T06:05:37.671Z,18.40
2019-03-19T06:08:07.068Z,18.80
2019-03-19T06:10:36.491Z,16.27
2019-03-19T06:13:05.894Z,15.70
2019-03-19T06:15:35.314Z,16.90
2019-03-19T06:18:04.782Z,14.67
2019-03-19T06:20:34.196Z,14.83
2019-03-19T06:23:03.657Z,16.37
2019-03-19T06:25:33.070Z,14.97
2019-03-19T06:28:02.472Z,14.47
2019-03-19T06:30:31.899Z,15.10
2019-03-19T06:33:01.277Z,14.37
2019-03-19T06:35:30.701Z,13.83
2019-03-19T06:38:00.104Z,14.07
2019-03-19T06:40:29.538Z,10.20
2019-03-19T06:42:58.947Z,13.70
2019-03-19T06:45:28.348Z,14.33
2019-03-19T06:47:57.757Z,13.90
2019-03-19T06:50:28.251Z,12.40
2019-03-19T06:52:57.826Z,12.77
2019-03-19T06:55:27.248Z,8.63
2019-03-19T06:57:56.646Z,11.20
2019-03-19T07:00:26.299Z,13.00
2019-03-19T07:02:55.693Z,10.47
2019-03-19T07:05:25.106Z,9.77
2019-03-19T07:07:54.562Z,10.10
2019-03-19T07:10:23.977Z,9.70
2019-03-19T07:12:53.374Z,9.70
2019-03-19T07:15:23.738Z,9.40
2019-03-19T07:17:53.125Z,8.87
2019-03-19T07:20:23.974Z,7.77
2019-03-19T07:22:53.373Z,9.57
2019-03-19T07:25:22.846Z,9.90
2019-03-19T07:27:52.263Z,8.70
2019-03-19T07:30:24.106Z,8.37
2019-03-19T07:32:53.519Z,7.43
2019-03-19T07:35:22.914Z,11.00
2019-03-19T07:37:52.344Z,10.40
2019-03-19T07:40:21.741Z,10.47
2019-03-19T07:42:51.151Z,7.60
2019-03-19T07:45:26.777Z,10.40
2019-03-19T07:47:56.194Z,7.63
2019-03-19T07:50:25.597Z,9.10
2019-03-19T07:52:55.030Z,8.63
2019-03-19T07:55:24.416Z,7.47
2019-03-19T07:57:53.826Z,8.23
2019-03-19T08:00:23.610Z,7.07
2019-03-19T08:02:53.021Z,9.43
2019-03-19T08:05:32.529Z,7.30
2019-03-19T08:07:53.534Z,6.13
2019-03-19T08:10:22.936Z,7.43
2019-03-19T08:12:52.363Z,9.17
2019-03-19T08:15:22.332Z,8.50
2019-03-19T08:17:51.785Z,7.27
2019-03-19T08:20:21.178Z,6.90
2019-03-19T08:22:50.593Z,7.37
2019-03-19T08:25:19.984Z,8.90
2019-03-19T08:27:49.404Z,9.10
2019-03-19T08:30:24.604Z,10.20
2019-03-19T08:32:54.157Z,9.27
2019-03-19T08:35:23.644Z,9.70
2019-03-19T08:37:53.051Z,9.53
2019-03-19T08:40:22.458Z,8.83
2019-03-19T08:42:51.870Z,9.77
2019-03-19T08:45:27.487Z,10.97
2019-03-19T08:47:56.972Z,7.93
2019-03-19T08:50:26.621Z,10.77
2019-03-19T08:52:56.027Z,11.83
2019-03-19T08:55:25.455Z,9.47
2019-03-19T08:57:54.834Z,6.10
2019-03-19T09:00:27.862Z,6.60
2019-03-19T09:02:57.281Z,7.87
2019-03-19T09:05:26.693Z,7.75
2019-03-19T09:07:56.110Z,7.78
2019-03-19T09:10:25.499Z,6.10
2019-03-19T09:12:54.917Z,8.18
2019-03-19T09:15:28.822Z,6.30
2019-03-19T09:17:58.243Z,7.78
2019-03-19T09:20:27.655Z,6.90
2019-03-19T09:22:57.087Z,4.58
2019-03-19T09:25:26.484Z,5.62
2019-03-19T09:27:55.911Z,5.40
2019-03-19T09:30:25.717Z,6.95
2019-03-19T09:32:55.085Z,5.72
2019-03-19T09:35:26.301Z,6.25
2019-03-19T09:37:58.900Z,6.35
2019-03-19T09:40:26.687Z,6.33
2019-03-19T09:42:56.101Z,6.42
2019-03-19T09:45:25.505Z,7.92
2019-03-19T09:47:54.937Z,4.97
2019-03-19T09:50:26.063Z,6.62
2019-03-19T09:52:55.549Z,5.90
2019-03-19T09:55:24.944Z,6.10
2019-03-19T09:57:54.342Z,6.05
2019-03-19T10:00:24.287Z,6.62
2019-03-19T10:02:53.928Z,6.03
2019-03-19T10:05:23.326Z,7.87
2019-03-19T10:07:52.841Z,6.45
2019-03-19T10:10:23.402Z,6.37
2019-03-19T10:12:52.877Z,6.78
2019-03-19T10:15:22.452Z,6.85
2019-03-19T10:17:51.871Z,5.53
2019-03-19T10:20:25.348Z,6.42
2019-03-19T10:22:54.776Z,6.75
2019-03-19T10:25:24.232Z,6.12
2019-03-19T10:27:53.663Z,5.40
2019-03-19T10:30:23.892Z,6.45
2019-03-19T10:32:53.326Z,6.95
2019-03-19T10:35:22.801Z,6.53
2019-03-19T10:37:52.220Z,6.75
2019-03-19T10:40:22.246Z,5.45
2019-03-19T10:42:51.647Z,6.40
2019-03-19T10:45:22.182Z,7.58
2019-03-19T10:47:51.877Z,4.75
2019-03-19T10:50:23.285Z,7.10
2019-03-19T10:52:52.689Z,5.80
2019-03-19T10:55:22.160Z,5.55
2019-03-19T10:57:51.634Z,5.92
2019-03-19T11:00:25.946Z,7.08
2019-03-19T11:02:55.741Z,5.22
2019-03-19T11:05:25.800Z,5.00
2019-03-19T11:07:55.212Z,4.15
2019-03-19T11:10:24.609Z,5.28
2019-03-19T11:12:54.102Z,4.85
2019-03-19T11:15:27.301Z,5.33
2019-03-19T11:17:56.729Z,5.37
2019-03-19T11:20:26.192Z,4.62
2019-03-19T11:22:55.617Z,4.97
2019-03-19T11:25:29.251Z,5.28
2019-03-19T11:27:58.914Z,5.78
2019-03-19T11:30:29.537Z,6.62
2019-03-19T11:32:58.940Z,5.87
2019-03-19T11:35:28.498Z,4.95
2019-03-19T11:37:57.926Z,4.60
2019-03-19T11:40:27.383Z,5.60
2019-03-19T11:42:56.809Z,6.50
2019-03-19T11:45:26.481Z,4.62
2019-03-19T11:47:55.956Z,4.75
2019-03-19T11:50:26.701Z,5.15
2019-03-19T11:52:56.369Z,5.67
2019-03-19T11:55:25.891Z,6.00
2019-03-19T11:57:57.437Z,6.28
2019-03-19T12:00:50.257Z,5.92
2019-03-19T12:03:19.839Z,5.35
2019-03-19T12:05:49.231Z,4.65
2019-03-19T12:08:18.656Z,5.25
2019-03-19T12:10:48.053Z,6.20
2019-03-19T12:13:17.458Z,8.65
2019-03-19T12:15:46.852Z,5.25
2019-03-19T12:18:16.261Z,4.97
2019-03-19T12:20:45.654Z,6.22
2019-03-19T12:23:15.076Z,5.25
2019-03-19T12:25:44.466Z,5.17
2019-03-19T12:28:13.935Z,5.25
2019-03-19T12:30:43.329Z,4.22
2019-03-19T12:33:12.726Z,4.70
2019-03-19T12:35:42.112Z,6.00
2019-03-19T12:38:11.520Z,6.53
2019-03-19T12:40:40.910Z,6.53
2019-03-19T12:43:10.337Z,5.35
2019-03-19T12:45:39.737Z,6.17
2019-03-19T12:48:09.162Z,6.35
2019-03-19T12:50:38.554Z,6.53
2019-03-19T12:53:07.969Z,5.87
2019-03-19T12:55:37.437Z,6.60
2019-03-19T12:58:06.848Z,7.23
2019-03-19T13:00:36.342Z,7.53
2019-03-19T13:03:05.938Z,6.33
2019-03-19T13:05:35.323Z,6.47
2019-03-19T13:08:04.814Z,6.83
2019-03-19T13:10:34.220Z,6.90
2019-03-19T13:13:03.724Z,5.37
2019-03-19T13:15:33.199Z,8.20
2019-03-19T13:18:02.610Z,6.33
2019-03-19T13:20:32.017Z,7.57
2019-03-19T13:23:01.411Z,7.07
2019-03-19T13:25:30.835Z,7.40
2019-03-19T13:28:00.308Z,7.73
2019-03-19T13:30:31.149Z,7.97
2019-03-19T13:33:00.630Z,7.73
2019-03-19T13:35:30.033Z,9.03
2019-03-19T13:37:59.531Z,10.83
2019-03-19T13:40:28.945Z,10.17
2019-03-19T13:42:58.365Z,10.60
2019-03-19T13:45:27.767Z,9.10
2019-03-19T13:47:57.170Z,6.13
2019-03-19T13:50:26.577Z,9.87
2019-03-19T13:52:55.975Z,5.77
2019-03-19T13:55:25.445Z,5.13
2019-03-19T13:57:54.839Z,8.73
2019-03-19T14:00:24.256Z,5.80
2019-03-19T14:02:53.653Z,9.00
2019-03-19T14:05:23.063Z,6.33
2019-03-19T14:07:52.451Z,5.17
2019-03-19T14:10:22.174Z,6.27
2019-03-19T14:12:51.570Z,6.13
2019-03-19T14:15:25.308Z,7.53
2019-03-19T14:17:54.709Z,5.33
2019-03-19T14:20:24.117Z,7.90
2019-03-19T14:22:53.521Z,6.47
2019-03-19T14:25:22.928Z,6.00
2019-03-19T14:27:52.338Z,5.57
2019-03-19T14:30:22.848Z,4.20
2019-03-19T14:32:52.190Z,8.73
2019-03-19T14:35:21.687Z,7.73
2019-03-19T14:37:51.075Z,8.77
2019-03-19T14:40:21.627Z,6.63
2019-03-19T14:42:51.049Z,6.27
2019-03-19T14:45:20.573Z,5.60
2019-03-19T14:47:50.002Z,7.80
2019-03-19T14:50:22.453Z,5.33
2019-03-19T14:52:51.885Z,5.63
2019-03-19T14:55:21.338Z,7.90
2019-03-19T14:57:51.142Z,5.77
2019-03-19T15:00:21.849Z,5.40
2019-03-19T15:02:51.279Z,5.93
2019-03-19T15:05:20.676Z,5.33
2019-03-19T15:07:50.100Z,5.27
2019-03-19T15:10:21.610Z,4.67
2019-03-19T15:12:51.035Z,7.40
2019-03-19T15:15:21.472Z,4.43
2019-03-19T15:17:50.948Z,7.53
2019-03-19T15:20:24.592Z,4.27
2019-03-19T15:22:54.030Z,5.97
2019-03-19T15:25:23.482Z,5.43
2019-03-19T15:27:53.133Z,5.77
2019-03-19T15:30:23.417Z,4.60
2019-03-19T15:32:52.841Z,4.30
2019-03-19T15:35:22.228Z,6.47
2019-03-19T15:37:51.649Z,8.80
2019-03-19T15:40:21.129Z,6.30
2019-03-19T15:42:50.530Z,4.10
2019-03-19T15:45:28.806Z,7.37
2019-03-19T15:47:58.233Z,5.63
2019-03-19T15:50:27.639Z,5.03
2019-03-19T15:52:57.072Z,6.87
2019-03-19T15:55:26.479Z,5.23
2019-03-19T15:57:55.915Z,6.10
2019-03-19T16:00:25.304Z,5.27
2019-03-19T16:02:54.741Z,7.40
2019-03-19T16:05:24.143Z,6.07
2019-03-19T16:07:53.560Z,6.30
2019-03-19T16:10:22.971Z,4.93
2019-03-19T16:12:52.398Z,4.37
2019-03-19T16:15:22.930Z,6.47
2019-03-19T16:17:52.409Z,5.40
2019-03-19T16:20:22.700Z,4.77
2019-03-19T16:22:52.127Z,6.10
2019-03-19T16:25:21.634Z,5.33
2019-03-19T16:27:51.042Z,7.43
2019-03-19T16:30:21.001Z,4.27
2019-03-19T16:32:50.382Z,4.40
2019-03-19T16:35:19.810Z,6.77
2019-03-19T16:37:49.195Z,5.43
2019-03-19T16:40:22.175Z,5.10
2019-03-19T16:42:51.556Z,4.00
2019-03-19T16:45:20.971Z,3.67
2019-03-19T16:47:50.366Z,5.03
2019-03-19T16:50:23.747Z,3.30
2019-03-19T16:52:53.151Z,7.33
2019-03-19T16:55:22.978Z,5.43
2019-03-19T16:57:52.376Z,7.17
2019-03-19T17:00:23.520Z,4.60
2019-03-19T17:02:52.882Z,4.23
2019-03-19T17:05:22.448Z,7.33
2019-03-19T17:07:51.913Z,4.77
2019-03-19T17:10:26.525Z,3.43
2019-03-19T17:12:56.034Z,5.80
2019-03-19T17:15:25.444Z,4.10
2019-03-19T17:17:54.840Z,4.90
2019-03-19T17:20:24.268Z,5.13
2019-03-19T17:22:53.668Z,5.13
2019-03-19T17:25:26.955Z,5.47
2019-03-19T17:27:56.352Z,4.87
2019-03-19T17:30:33.596Z,4.17
2019-03-19T17:33:03.057Z,4.40
2019-03-19T17:35:32.485Z,4.57
2019-03-19T17:38:01.942Z,5.20
2019-03-19T17:40:40.881Z,5.10
2019-03-19T17:43:02.454Z,3.67
2019-03-19T17:45:31.883Z,4.13
2019-03-19T17:48:01.288Z,4.50
2019-03-19T17:50:35.822Z,4.93
2019-03-19T17:53:05.579Z,4.73
2019-03-19T17:55:35.029Z,5.03
2019-03-19T17:58:04.628Z,4.90
2019-03-19T18:00:35.693Z,5.83
2019-03-19T18:03:07.314Z,5.60
2019-03-19T18:05:36.731Z,8.77
2019-03-19T18:08:06.195Z,7.10
2019-03-19T18:10:35.610Z,4.33
2019-03-19T18:13:06.620Z,5.63
2019-03-19T18:15:36.242Z,6.67
2019-03-19T18:18:05.902Z,7.07
2019-03-19T18:20:35.337Z,6.50
2019-03-19T18:23:04.869Z,9.83
2019-03-19T18:25:34.279Z,6.07
2019-03-19T18:28:03.684Z,9.33
2019-03-19T18:30:33.140Z,6.70
2019-03-19T18:33:02.542Z,9.50
2019-03-19T18:35:31.946Z,7.70
2019-03-19T18:38:01.337Z,7.13
2019-03-19T18:40:30.762Z,6.77
2019-03-19T18:43:00.160Z,15.67
2019-03-19T18:45:29.582Z,12.70
2019-03-19T18:47:58.988Z,9.07
2019-03-19T18:50:28.390Z,7.63
2019-03-19T18:52:57.853Z,7.07
2019-03-19T18:55:27.255Z,9.00
2019-03-19T18:57:56.642Z,8.13
2019-03-19T19:00:26.057Z,6.43
2019-03-19T19:02:55.449Z,6.23
2019-03-19T19:05:25.143Z,8.87
2019-03-19T19:07:54.555Z,8.20
2019-03-19T19:10:24.038Z,7.20
2019-03-19T19:12:53.505Z,7.30
2019-03-19T19:15:26.251Z,8.80
2019-03-19T19:17:55.660Z,5.70
2019-03-19T19:20:25.140Z,5.83
2019-03-19T19:22:54.571Z,7.63
2019-03-19T19:25:28.146Z,6.03
2019-03-19T19:27:57.610Z,16.87
2019-03-19T19:30:31.126Z,15.00
2019-03-19T19:33:02.423Z,21.97
2019-03-19T19:35:31.677Z,15.10
2019-03-19T19:38:03.229Z,17.17
2019-03-19T19:40:32.233Z,16.17
2019-03-19T19:43:01.667Z,11.47
2019-03-19T19:45:31.078Z,12.53
2019-03-19T19:48:00.499Z,11.67
2019-03-19T19:50:29.985Z,9.80
2019-03-19T19:52:59.424Z,9.07
2019-03-19T19:55:28.860Z,10.00
2019-03-19T19:57:58.318Z,7.60
2019-03-19T20:00:28.488Z,6.37
2019-03-19T20:02:57.994Z,5.63
2019-03-19T20:05:27.402Z,6.13
2019-03-19T20:07:56.819Z,4.67
2019-03-19T20:10:27.572Z,6.30
2019-03-19T20:12:56.961Z,7.87
2019-03-19T20:15:26.371Z,8.07
2019-03-19T20:17:55.884Z,7.83
2019-03-19T20:20:30.330Z,11.73
2019-03-19T20:22:59.787Z,14.60
2019-03-19T20:25:29.207Z,9.93
2019-03-19T20:27:58.622Z,10.43
2019-03-19T20:30:28.497Z,8.33
2019-03-19T20:32:57.965Z,9.40
2019-03-19T20:35:27.448Z,7.93
2019-03-19T20:37:56.839Z,8.47
2019-03-19T20:40:26.269Z,8.07
2019-03-19T20:42:55.763Z,8.87
2019-03-19T20:45:29.398Z,8.50
2019-03-19T20:47:58.823Z,8.30
2019-03-19T20:50:39.563Z,10.00
2019-03-19T20:53:08.959Z,7.90
2019-03-19T20:55:38.370Z,8.67
2019-03-19T20:58:07.791Z,7.67
2019-03-19T21:00:37.260Z,10.83
2019-03-19T21:03:06.702Z,10.30
2019-03-19T21:05:36.112Z,11.80
2019-03-19T21:08:05.529Z,11.67
2019-03-19T21:10:35.416Z,13.33
2019-03-19T21:13:04.919Z,10.83
2019-03-19T21:15:34.314Z,14.57
2019-03-19T21:18:03.732Z,10.47
2019-03-19T21:20:33.243Z,14.67
2019-03-19T21:23:02.672Z,13.80
2019-03-19T21:25:32.066Z,15.60
2019-03-19T21:28:01.665Z,20.70
2019-03-19T21:30:31.052Z,23.03
2019-03-19T21:33:00.483Z,31.03
2019-03-19T21:35:29.914Z,22.83
2019-03-19T21:37:59.342Z,18.03
2019-03-19T21:40:28.741Z,17.07
2019-03-19T21:42:58.430Z,18.43
2019-03-19T21:45:27.970Z,16.47
2019-03-19T21:47:57.375Z,15.40
2019-03-19T21:50:26.970Z,14.17
2019-03-19T21:52:56.400Z,15.30
2019-03-19T21:55:25.870Z,15.03
2019-03-19T21:57:55.288Z,15.30
2019-03-19T22:00:29.086Z,15.90
2019-03-19T22:02:58.508Z,14.23
2019-03-19T22:05:27.914Z,13.13
2019-03-19T22:07:57.414Z,11.63
2019-03-19T22:10:26.901Z,13.57
2019-03-19T22:12:56.317Z,11.90
2019-03-19T22:15:26.353Z,11.70
2019-03-19T22:17:55.764Z,11.20
2019-03-19T22:20:25.160Z,11.93
2019-03-19T22:22:54.638Z,13.50
2019-03-19T22:25:24.033Z,12.40
2019-03-19T22:27:53.543Z,15.00
2019-03-19T22:30:23.092Z,15.27
2019-03-19T22:32:52.573Z,11.93
2019-03-19T22:35:21.968Z,9.93
2019-03-19T22:37:51.399Z,11.17
2019-03-19T22:40:20.842Z,8.07
2019-03-19T22:42:50.253Z,8.37
2019-03-19T22:45:20.019Z,9.97
2019-03-19T22:47:49.520Z,11.87
2019-03-19T22:50:19.271Z,9.10
2019-03-19T22:52:48.703Z,12.10
2019-03-19T22:55:28.602Z,8.30
2019-03-19T22:57:49.775Z,8.90
2019-03-19T23:00:37.855Z,10.00
2019-03-19T23:03:08.117Z,8.13
2019-03-19T23:05:37.559Z,12.80
2019-03-19T23:08:07.075Z,10.43
2019-03-19T23:10:36.695Z,13.07
2019-03-19T23:13:06.373Z,11.63
2019-03-19T23:15:35.979Z,9.03
2019-03-19T23:18:05.473Z,12.23
2019-03-19T23:20:48.261Z,11.80
2019-03-19T23:23:17.682Z,14.70
2019-03-19T23:25:47.155Z,25.13
2019-03-19T23:28:16.580Z,21.77
2019-03-19T23:30:45.963Z,17.70
2019-03-19T23:33:15.364Z,15.60
2019-03-19T23:35:44.761Z,14.23
2019-03-19T23:38:14.185Z,16.97
2019-03-19T23:40:43.586Z,14.87
2019-03-19T23:43:13.004Z,13.30
2019-03-19T23:45:42.413Z,13.83
2019-03-19T23:48:11.836Z,12.40
2019-03-19T23:50:41.240Z,16.93
2019-03-19T23:53:10.645Z,16.53
2019-03-19T23:55:40.044Z,15.40
2019-03-19T23:58:10.498Z,11.10
